createdAt,value
2023-04-12T00:00:41.096Z,934.85
2023-04-12T00:01:41.122Z,934.85
2023-04-12T00:02:41.256Z,934.85
2023-04-12T00:03:41.306Z,934.83
2023-04-12T00:04:41.268Z,934.85
2023-04-12T00:05:41.179Z,934.89
2023-04-12T00:06:41.189Z,934.87
2023-04-12T00:07:41.196Z,934.90
2023-04-12T00:08:41.215Z,934.92
2023-04-12T00:09:41.230Z,934.89
2023-04-12T00:10:41.253Z,934.89
2023-04-12T00:11:41.294Z,934.90
2023-04-12T00:12:41.283Z,934.94
2023-04-12T00:13:41.297Z,934.96
2023-04-12T00:14:41.306Z,934.91
2023-04-12T00:15:41.346Z,935.00
2023-04-12T00:16:41.352Z,934.96
2023-04-12T00:17:41.378Z,934.97
2023-04-12T00:18:41.377Z,934.95
2023-04-12T00:19:41.402Z,934.96
2023-04-12T00:20:41.401Z,934.99
2023-04-12T00:21:41.421Z,934.99
2023-04-12T00:22:41.532Z,934.97
2023-04-12T00:23:41.453Z,934.99
2023-04-12T00:24:41.473Z,934.97
2023-04-12T00:25:41.493Z,934.91
2023-04-12T00:26:41.499Z,934.96
2023-04-12T00:27:41.533Z,934.97
2023-04-12T00:28:41.533Z,934.95
2023-04-12T00:29:41.538Z,934.93
2023-04-12T00:30:41.561Z,934.92
2023-04-12T00:31:41.669Z,934.93
2023-04-12T00:32:41.634Z,934.92
2023-04-12T00:33:41.616Z,934.91
2023-04-12T00:34:41.629Z,934.92
2023-04-12T00:35:41.659Z,934.89
2023-04-12T00:36:41.645Z,934.87
2023-04-12T00:37:41.662Z,934.92
2023-04-12T00:38:41.675Z,934.97
2023-04-12T00:39:41.694Z,934.99
2023-04-12T00:40:41.714Z,934.98
2023-04-12T00:41:41.723Z,934.98
2023-04-12T00:42:41.736Z,934.99
2023-04-12T00:43:41.856Z,935.00
2023-04-12T00:44:41.776Z,935.00
2023-04-12T00:45:41.781Z,935.02
2023-04-12T00:46:41.842Z,935.01
2023-04-12T00:47:41.843Z,935.05
2023-04-12T00:48:41.828Z,935.07
2023-04-12T00:49:41.851Z,935.04
2023-04-12T00:50:41.864Z,935.06
2023-04-12T00:51:41.875Z,935.07
2023-04-12T00:52:41.937Z,935.07
2023-04-12T00:53:41.906Z,935.04
2023-04-12T00:54:41.920Z,935.06
2023-04-12T00:55:41.935Z,935.05
2023-04-12T00:56:41.992Z,935.05
2023-04-12T00:57:41.972Z,935.07
2023-04-12T00:58:41.981Z,935.04
2023-04-12T00:59:42.023Z,935.05
2023-04-12T01:00:42.094Z,935.05
2023-04-12T01:01:42.142Z,935.01
2023-04-12T01:02:42.312Z,935.05
2023-04-12T01:03:42.139Z,935.04
2023-04-12T01:04:42.071Z,935.08
2023-04-12T01:05:42.085Z,935.05
2023-04-12T01:06:42.104Z,935.03
2023-04-12T01:07:42.129Z,935.01
2023-04-12T01:08:42.147Z,935.04
2023-04-12T01:09:42.152Z,935.01
2023-04-12T01:10:42.163Z,935.01
2023-04-12T01:11:42.178Z,935.01
2023-04-12T01:12:42.204Z,934.99
2023-04-12T01:13:42.205Z,934.98
2023-04-12T01:14:42.235Z,934.93
2023-04-12T01:15:42.270Z,934.89
2023-04-12T01:16:42.361Z,934.87
2023-04-12T01:17:42.292Z,934.84
2023-04-12T01:18:42.291Z,934.80
2023-04-12T01:19:42.303Z,934.84
2023-04-12T01:20:42.323Z,934.73
2023-04-12T01:21:42.335Z,934.74
2023-04-12T01:22:42.349Z,934.77
2023-04-12T01:23:42.374Z,934.73
2023-04-12T01:24:42.380Z,934.81
2023-04-12T01:25:42.387Z,934.83
2023-04-12T01:26:42.429Z,934.84
2023-04-12T01:27:42.417Z,934.86
2023-04-12T01:28:42.442Z,934.86
2023-04-12T01:29:42.457Z,934.87
2023-04-12T01:30:42.465Z,934.88
2023-04-12T01:31:42.512Z,934.87
2023-04-12T01:32:42.526Z,934.90
2023-04-12T01:33:42.513Z,934.88
2023-04-12T01:34:42.523Z,934.92
2023-04-12T01:35:42.570Z,934.92
2023-04-12T01:36:42.565Z,934.94
2023-04-12T01:37:42.574Z,934.92
2023-04-12T01:38:42.584Z,934.91
2023-04-12T01:39:42.604Z,934.95
2023-04-12T01:40:42.788Z,934.93
2023-04-12T01:41:42.645Z,934.95
2023-04-12T01:42:42.660Z,934.96
2023-04-12T01:43:42.669Z,934.95
2023-04-12T01:44:42.683Z,934.97
2023-04-12T01:45:42.779Z,934.93
2023-04-12T01:46:42.714Z,934.92
2023-04-12T01:47:42.780Z,934.95
2023-04-12T01:48:42.736Z,934.94
2023-04-12T01:49:42.773Z,934.91
2023-04-12T01:50:42.773Z,934.92
2023-04-12T01:51:42.793Z,934.92
2023-04-12T01:52:42.806Z,934.91
2023-04-12T01:53:42.831Z,934.89
2023-04-12T01:54:42.839Z,934.88
2023-04-12T01:55:42.860Z,934.88
2023-04-12T01:56:42.870Z,934.92
2023-04-12T01:57:42.879Z,934.90
2023-04-12T01:58:42.897Z,934.92
2023-04-12T01:59:42.904Z,934.86
2023-04-12T02:00:42.919Z,934.85
2023-04-12T02:01:43.125Z,934.87
2023-04-12T02:02:43.275Z,934.80
2023-04-12T02:03:43.095Z,934.78
2023-04-12T02:04:43.021Z,934.77
2023-04-12T02:05:42.993Z,934.75
2023-04-12T02:06:43.009Z,934.72
2023-04-12T02:07:43.027Z,934.75
2023-04-12T02:08:43.061Z,934.77
2023-04-12T02:09:43.069Z,934.70
2023-04-12T02:10:43.069Z,934.72
2023-04-12T02:11:43.091Z,934.72
2023-04-12T02:12:43.104Z,934.69
2023-04-12T02:13:43.119Z,934.71
2023-04-12T02:14:43.134Z,934.73
2023-04-12T02:15:43.142Z,934.70
2023-04-12T02:16:43.194Z,934.66
2023-04-12T02:17:43.200Z,934.70
2023-04-12T02:18:43.216Z,934.71
2023-04-12T02:19:43.227Z,934.70
2023-04-12T02:20:43.227Z,934.72
2023-04-12T02:21:43.273Z,934.72
2023-04-12T02:22:43.259Z,934.72
2023-04-12T02:23:43.269Z,934.68
2023-04-12T02:24:43.286Z,934.65
2023-04-12T02:25:43.299Z,934.64
2023-04-12T02:26:43.314Z,934.59
2023-04-12T02:27:43.337Z,934.60
2023-04-12T02:28:43.338Z,934.63
2023-04-12T02:29:43.360Z,934.61
2023-04-12T02:30:43.452Z,934.60
2023-04-12T02:31:43.386Z,934.58
2023-04-12T02:32:43.446Z,934.58
2023-04-12T02:33:43.424Z,934.52
2023-04-12T02:34:43.435Z,934.57
2023-04-12T02:35:43.504Z,934.54
2023-04-12T02:36:43.457Z,934.56
2023-04-12T02:37:43.480Z,934.58
2023-04-12T02:38:43.495Z,934.55
2023-04-12T02:39:43.516Z,934.54
2023-04-12T02:40:43.526Z,934.54
2023-04-12T02:41:43.533Z,934.49
2023-04-12T02:42:43.556Z,934.52
2023-04-12T02:43:43.562Z,934.54
2023-04-12T02:44:43.592Z,934.49
2023-04-12T02:45:43.624Z,934.47
2023-04-12T02:46:43.607Z,934.51
2023-04-12T02:47:43.686Z,934.46
2023-04-12T02:48:43.637Z,934.47
2023-04-12T02:49:43.672Z,934.46
2023-04-12T02:50:43.674Z,934.47
2023-04-12T02:51:43.708Z,934.48
2023-04-12T02:52:43.698Z,934.49
2023-04-12T02:53:43.712Z,934.46
2023-04-12T02:54:43.748Z,934.50
2023-04-12T02:55:43.741Z,934.49
2023-04-12T02:56:43.794Z,934.45
2023-04-12T02:57:43.785Z,934.50
2023-04-12T02:58:43.794Z,934.49
2023-04-12T02:59:43.802Z,934.47
2023-04-12T03:00:43.843Z,934.46
2023-04-12T03:01:43.895Z,934.43
2023-04-12T03:02:44.052Z,934.44
2023-04-12T03:03:43.900Z,934.43
2023-04-12T03:04:43.876Z,934.42
2023-04-12T03:05:43.893Z,934.39
2023-04-12T03:06:43.917Z,934.38
2023-04-12T03:07:43.940Z,934.38
2023-04-12T03:08:43.944Z,934.38
2023-04-12T03:09:43.957Z,934.39
2023-04-12T03:10:43.976Z,934.41
2023-04-12T03:11:43.988Z,934.44
2023-04-12T03:12:44.008Z,934.42
2023-04-12T03:13:44.021Z,934.45
2023-04-12T03:14:44.034Z,934.44
2023-04-12T03:15:44.118Z,934.48
2023-04-12T03:16:44.055Z,934.46
2023-04-12T03:17:44.108Z,934.48
2023-04-12T03:18:44.092Z,934.45
2023-04-12T03:19:44.100Z,934.44
2023-04-12T03:20:46.044Z,934.44
2023-04-12T03:21:44.135Z,934.45
2023-04-12T03:22:44.150Z,934.45
2023-04-12T03:23:44.183Z,934.46
2023-04-12T03:24:44.182Z,934.44
2023-04-12T03:25:44.204Z,934.40
2023-04-12T03:26:44.269Z,934.42
2023-04-12T03:27:44.227Z,934.44
2023-04-12T03:28:44.243Z,934.42
2023-04-12T03:29:44.246Z,934.39
2023-04-12T03:30:44.277Z,934.40
2023-04-12T03:31:44.278Z,934.37
2023-04-12T03:32:44.323Z,934.36
2023-04-12T03:33:44.307Z,934.36
2023-04-12T03:34:44.320Z,934.40
2023-04-12T03:35:44.359Z,934.36
2023-04-12T03:36:44.390Z,934.39
2023-04-12T03:37:44.365Z,934.36
2023-04-12T03:38:44.396Z,934.39
2023-04-12T03:39:44.419Z,934.37
2023-04-12T03:40:44.418Z,934.38
2023-04-12T03:41:44.422Z,934.38
2023-04-12T03:42:44.438Z,934.38
2023-04-12T03:43:44.454Z,934.37
2023-04-12T03:44:44.475Z,934.36
2023-04-12T03:45:44.491Z,934.36
2023-04-12T03:46:44.557Z,934.37
2023-04-12T03:47:44.554Z,934.33
2023-04-12T03:48:44.538Z,934.30
2023-04-12T03:49:47.754Z,934.30
2023-04-12T03:50:44.744Z,934.32
2023-04-12T03:51:44.579Z,934.31
2023-04-12T03:52:44.592Z,934.28
2023-04-12T03:53:44.602Z,934.27
2023-04-12T03:54:44.628Z,934.23
2023-04-12T03:55:44.652Z,934.23
2023-04-12T03:56:46.096Z,934.23
2023-04-12T03:57:44.661Z,934.26
2023-04-12T03:58:44.690Z,934.25
2023-04-12T03:59:44.704Z,934.26
2023-04-12T04:00:44.709Z,934.25
2023-04-12T04:01:44.768Z,934.23
2023-04-12T04:02:44.923Z,934.23
2023-04-12T04:03:45.391Z,934.24
2023-04-12T04:04:44.811Z,934.24
2023-04-12T04:05:44.792Z,934.24
2023-04-12T04:06:44.803Z,934.23
2023-04-12T04:07:44.819Z,934.26
2023-04-12T04:08:44.835Z,934.23
2023-04-12T04:09:44.840Z,934.24
2023-04-12T04:10:44.873Z,934.27
2023-04-12T04:11:44.895Z,934.26
2023-04-12T04:12:44.885Z,934.30
2023-04-12T04:13:44.899Z,934.28
2023-04-12T04:14:44.916Z,934.28
2023-04-12T04:15:44.937Z,934.25
2023-04-12T04:16:45.002Z,934.27
2023-04-12T04:17:45.036Z,934.29
2023-04-12T04:18:44.985Z,934.28
2023-04-12T04:19:45.002Z,934.29
2023-04-12T04:20:45.004Z,934.28
2023-04-12T04:21:45.018Z,934.32
2023-04-12T04:22:45.040Z,934.27
2023-04-12T04:23:45.233Z,934.29
2023-04-12T04:24:45.066Z,934.31
2023-04-12T04:25:45.078Z,934.30
2023-04-12T04:26:45.099Z,934.29
2023-04-12T04:27:45.161Z,934.34
2023-04-12T04:28:45.147Z,934.29
2023-04-12T04:29:45.145Z,934.30
2023-04-12T04:30:45.153Z,934.26
2023-04-12T04:31:45.223Z,934.23
2023-04-12T04:32:45.230Z,934.23
2023-04-12T04:33:45.205Z,934.21
2023-04-12T04:34:45.225Z,934.20
2023-04-12T04:35:45.248Z,934.20
2023-04-12T04:36:45.242Z,934.21
2023-04-12T04:37:45.267Z,934.22
2023-04-12T04:38:45.277Z,934.24
2023-04-12T04:39:45.295Z,934.24
2023-04-12T04:40:45.299Z,934.22
2023-04-12T04:41:45.345Z,934.22
2023-04-12T04:42:45.330Z,934.20
2023-04-12T04:43:45.388Z,934.23
2023-04-12T04:44:45.386Z,934.20
2023-04-12T04:45:45.417Z,934.22
2023-04-12T04:46:45.413Z,934.23
2023-04-12T04:47:45.450Z,934.20
2023-04-12T04:48:45.439Z,934.17
2023-04-12T04:49:45.448Z,934.16
2023-04-12T04:50:45.463Z,934.16
2023-04-12T04:51:45.473Z,934.18
2023-04-12T04:52:45.480Z,934.12
2023-04-12T04:53:45.495Z,934.11
2023-04-12T04:54:45.509Z,934.09
2023-04-12T04:55:45.549Z,934.06
2023-04-12T04:56:45.565Z,934.08
2023-04-12T04:57:45.553Z,934.04
2023-04-12T04:58:45.582Z,934.05
2023-04-12T04:59:45.601Z,934.07
2023-04-12T05:00:45.718Z,934.10
2023-04-12T05:01:45.733Z,934.09
2023-04-12T05:02:45.972Z,934.07
2023-04-12T05:03:45.743Z,934.12
2023-04-12T05:04:45.673Z,934.06
2023-04-12T05:05:45.682Z,934.04
2023-04-12T05:06:45.686Z,934.01
2023-04-12T05:07:45.710Z,934.04
2023-04-12T05:08:45.718Z,934.04
2023-04-12T05:09:45.733Z,934.02
2023-04-12T05:10:45.754Z,934.08
2023-04-12T05:11:45.756Z,934.08
2023-04-12T05:12:45.780Z,934.08
2023-04-12T05:13:45.792Z,934.03
2023-04-12T05:14:47.987Z,934.04
2023-04-12T05:15:45.843Z,934.01
2023-04-12T05:16:45.902Z,934.01
2023-04-12T05:17:45.923Z,934.01
2023-04-12T05:18:45.863Z,933.98
2023-04-12T05:19:45.891Z,934.01
2023-04-12T05:20:45.988Z,933.97
2023-04-12T05:21:45.907Z,933.96
2023-04-12T05:22:45.919Z,933.96
2023-04-12T05:23:45.938Z,933.95
2023-04-12T05:24:45.972Z,933.95
2023-04-12T05:25:45.959Z,933.96
2023-04-12T05:26:45.993Z,933.98
2023-04-12T05:27:46.000Z,933.99
2023-04-12T05:28:46.067Z,934.00
2023-04-12T05:29:46.016Z,934.04
2023-04-12T05:30:46.045Z,933.99
2023-04-12T05:31:46.082Z,934.01
2023-04-12T05:32:46.151Z,933.99
2023-04-12T05:33:46.084Z,933.95
2023-04-12T05:34:46.091Z,933.94
2023-04-12T05:35:46.151Z,933.95
2023-04-12T05:36:46.122Z,933.91
2023-04-12T05:37:46.142Z,933.91
2023-04-12T05:38:46.155Z,933.87
2023-04-12T05:39:46.164Z,933.89
2023-04-12T05:40:46.177Z,933.90
2023-04-12T05:41:46.201Z,933.89
2023-04-12T05:42:46.215Z,933.87
2023-04-12T05:43:46.224Z,933.91
2023-04-12T05:44:48.636Z,933.89
2023-04-12T05:45:46.304Z,933.95
2023-04-12T05:46:46.333Z,933.95
2023-04-12T05:47:46.385Z,933.93
2023-04-12T05:48:46.305Z,933.90
2023-04-12T05:49:46.318Z,933.86
2023-04-12T05:50:46.325Z,933.87
2023-04-12T05:51:46.343Z,933.86
2023-04-12T05:52:46.357Z,933.89
2023-04-12T05:53:46.377Z,933.91
2023-04-12T05:54:46.384Z,933.89
2023-04-12T05:55:46.404Z,933.88
2023-04-12T05:56:46.420Z,933.93
2023-04-12T05:57:46.436Z,933.90
2023-04-12T05:58:46.449Z,933.95
2023-04-12T05:59:46.467Z,933.89
2023-04-12T06:00:46.474Z,933.91
2023-04-12T06:01:46.523Z,933.91
2023-04-12T06:02:46.665Z,933.88
2023-04-12T06:03:46.659Z,933.84
2023-04-12T06:04:50.114Z,933.82
2023-04-12T06:05:46.554Z,933.84
2023-04-12T06:06:46.574Z,933.83
2023-04-12T06:07:46.584Z,933.85
2023-04-12T06:08:46.593Z,933.83
2023-04-12T06:09:46.609Z,933.87
2023-04-12T06:10:46.631Z,933.88
2023-04-12T06:11:46.633Z,933.87
2023-04-12T06:12:46.661Z,933.87
2023-04-12T06:13:46.668Z,933.87
2023-04-12T06:14:46.689Z,933.86
2023-04-12T06:15:46.765Z,933.82
2023-04-12T06:16:46.715Z,933.82
2023-04-12T06:17:46.782Z,933.82
2023-04-12T06:18:46.738Z,933.83
2023-04-12T06:19:46.779Z,933.84
2023-04-12T06:20:46.776Z,933.80
2023-04-12T06:21:46.780Z,933.83
2023-04-12T06:22:46.803Z,933.79
2023-04-12T06:23:46.839Z,933.78
2023-04-12T06:24:46.838Z,933.83
2023-04-12T06:25:46.844Z,933.77
2023-04-12T06:26:46.875Z,933.76
2023-04-12T06:27:46.868Z,933.79
2023-04-12T06:28:46.917Z,933.79
2023-04-12T06:29:46.894Z,933.79
2023-04-12T06:30:46.918Z,933.84
2023-04-12T06:31:47.011Z,933.83
2023-04-12T06:32:47.024Z,933.82
2023-04-12T06:33:46.946Z,933.81
2023-04-12T06:34:46.963Z,933.77
2023-04-12T06:35:47.258Z,933.77
2023-04-12T06:36:46.999Z,933.74
2023-04-12T06:37:47.006Z,933.74
2023-04-12T06:38:47.036Z,933.76
2023-04-12T06:39:47.035Z,933.72
2023-04-12T06:40:47.050Z,933.71
2023-04-12T06:41:47.062Z,933.72
2023-04-12T06:42:47.090Z,933.77
2023-04-12T06:43:47.100Z,933.75
2023-04-12T06:44:47.114Z,933.76
2023-04-12T06:45:47.137Z,933.78
2023-04-12T06:46:47.163Z,933.73
2023-04-12T06:47:47.227Z,933.67
2023-04-12T06:48:47.163Z,933.73
2023-04-12T06:49:47.184Z,933.69
2023-04-12T06:50:47.200Z,933.64
2023-04-12T06:51:47.362Z,933.63
2023-04-12T06:52:47.227Z,933.63
2023-04-12T06:53:47.233Z,933.64
2023-04-12T06:54:47.248Z,933.62
2023-04-12T06:55:47.366Z,933.64
2023-04-12T06:56:47.294Z,933.63
2023-04-12T06:57:47.306Z,933.65
2023-04-12T06:58:47.312Z,933.66
2023-04-12T06:59:47.333Z,933.64
2023-04-12T07:00:47.353Z,933.61
2023-04-12T07:01:47.404Z,933.62
2023-04-12T07:02:47.445Z,933.62
2023-04-12T07:03:47.498Z,933.63
2023-04-12T07:04:47.395Z,933.63
2023-04-12T07:05:47.428Z,933.62
2023-04-12T07:06:47.426Z,933.62
2023-04-12T07:07:47.467Z,933.62
2023-04-12T07:08:47.458Z,933.64
2023-04-12T07:09:47.476Z,933.65
2023-04-12T07:10:47.482Z,933.64
2023-04-12T07:11:47.497Z,933.66
2023-04-12T07:12:47.526Z,933.66
2023-04-12T07:13:47.534Z,933.65
2023-04-12T07:14:47.540Z,933.63
2023-04-12T07:15:47.569Z,933.68
2023-04-12T07:16:47.674Z,933.69
2023-04-12T07:17:47.611Z,933.69
2023-04-12T07:18:47.630Z,933.69
2023-04-12T07:19:47.634Z,933.68
2023-04-12T07:20:47.638Z,933.65
2023-04-12T07:21:47.641Z,933.67
2023-04-12T07:22:47.657Z,933.64
2023-04-12T07:23:47.725Z,933.67
2023-04-12T07:24:47.697Z,933.66
2023-04-12T07:25:47.700Z,933.65
2023-04-12T07:26:47.719Z,933.70
2023-04-12T07:27:48.455Z,933.66
2023-04-12T07:28:47.744Z,933.64
2023-04-12T07:29:47.763Z,933.66
2023-04-12T07:30:47.771Z,933.66
2023-04-12T07:31:47.795Z,933.67
2023-04-12T07:32:47.977Z,933.69
2023-04-12T07:33:47.939Z,933.68
2023-04-12T07:34:47.844Z,933.67
2023-04-12T07:35:47.877Z,933.67
2023-04-12T07:36:47.868Z,933.65
2023-04-12T07:37:47.878Z,933.68
2023-04-12T07:38:47.896Z,933.70
2023-04-12T07:39:48.062Z,933.71
2023-04-12T07:40:50.257Z,933.69
2023-04-12T07:41:47.932Z,933.67
2023-04-12T07:42:47.969Z,933.71
2023-04-12T07:43:47.975Z,933.69
2023-04-12T07:44:47.991Z,933.72
2023-04-12T07:45:48.024Z,933.71
2023-04-12T07:46:48.016Z,933.69
2023-04-12T07:47:48.056Z,933.68
2023-04-12T07:48:48.046Z,933.66
2023-04-12T07:49:48.076Z,933.64
2023-04-12T07:50:48.070Z,933.66
2023-04-12T07:51:48.079Z,933.63
2023-04-12T07:52:48.100Z,933.60
2023-04-12T07:53:48.133Z,933.64
2023-04-12T07:54:48.124Z,933.67
2023-04-12T07:55:48.161Z,933.66
2023-04-12T07:56:48.151Z,933.67
2023-04-12T07:57:48.165Z,933.64
2023-04-12T07:58:48.197Z,933.69
2023-04-12T07:59:48.215Z,933.71
2023-04-12T08:00:48.220Z,933.70
2023-04-12T08:01:48.252Z,933.69
2023-04-12T08:02:48.338Z,933.69
2023-04-12T08:03:48.364Z,933.68
2023-04-12T08:04:48.275Z,933.62
2023-04-12T08:05:48.335Z,933.65
2023-04-12T08:06:48.406Z,933.64
2023-04-12T08:07:48.317Z,933.65
2023-04-12T08:08:48.421Z,933.62
2023-04-12T08:09:48.344Z,933.63
2023-04-12T08:10:48.359Z,933.66
2023-04-12T08:11:48.413Z,933.61
2023-04-12T08:12:48.388Z,933.65
2023-04-12T08:13:48.407Z,933.67
2023-04-12T08:14:48.418Z,933.66
2023-04-12T08:15:48.527Z,933.62
2023-04-12T08:16:48.437Z,933.69
2023-04-12T08:17:48.475Z,933.64
2023-04-12T08:18:48.514Z,933.63
2023-04-12T08:19:48.480Z,933.61
2023-04-12T08:20:48.494Z,933.68
2023-04-12T08:21:48.516Z,933.72
2023-04-12T08:22:48.533Z,933.74
2023-04-12T08:23:48.536Z,933.78
2023-04-12T08:24:48.559Z,933.74
2023-04-12T08:25:48.566Z,933.76
2023-04-12T08:26:48.589Z,933.75
2023-04-12T08:27:48.626Z,933.72
2023-04-12T08:28:48.619Z,933.78
2023-04-12T08:29:48.631Z,933.78
2023-04-12T08:30:48.638Z,933.80
2023-04-12T08:31:48.706Z,933.82
2023-04-12T08:32:48.807Z,933.85
2023-04-12T08:33:48.689Z,933.81
2023-04-12T08:34:48.706Z,933.82
2023-04-12T08:35:48.782Z,933.79
2023-04-12T08:36:48.732Z,933.83
2023-04-12T08:37:48.738Z,933.83
2023-04-12T08:38:48.771Z,933.79
2023-04-12T08:39:48.777Z,933.80
2023-04-12T08:40:48.791Z,933.84
2023-04-12T08:41:48.805Z,933.82
2023-04-12T08:42:48.813Z,933.88
2023-04-12T08:43:48.924Z,933.90
2023-04-12T08:44:48.856Z,933.90
2023-04-12T08:45:48.861Z,933.93
2023-04-12T08:46:48.892Z,933.87
2023-04-12T08:47:48.889Z,933.88
2023-04-12T08:48:48.917Z,933.86
2023-04-12T08:49:48.913Z,933.86
2023-04-12T08:50:50.537Z,933.87
2023-04-12T08:51:48.942Z,933.88
2023-04-12T08:52:48.964Z,933.88
2023-04-12T08:53:48.980Z,933.93
2023-04-12T08:54:49.007Z,933.91
2023-04-12T08:55:49.013Z,933.89
2023-04-12T08:56:49.013Z,933.92
2023-04-12T08:57:49.026Z,933.95
2023-04-12T08:58:49.121Z,933.95
2023-04-12T08:59:49.089Z,933.97
2023-04-12T09:00:49.081Z,933.96
2023-04-12T09:01:49.135Z,934.00
2023-04-12T09:02:49.331Z,934.02
2023-04-12T09:03:49.317Z,934.08
2023-04-12T09:04:49.446Z,934.11
2023-04-12T09:05:49.147Z,934.09
2023-04-12T09:06:49.173Z,934.06
2023-04-12T09:07:49.182Z,934.13
2023-04-12T09:08:49.205Z,934.12
2023-04-12T09:09:49.207Z,934.13
2023-04-12T09:10:49.230Z,934.14
2023-04-12T09:11:49.235Z,934.17
2023-04-12T09:12:50.936Z,934.18
2023-04-12T09:13:49.271Z,934.23
2023-04-12T09:14:49.302Z,934.26
2023-04-12T09:15:49.331Z,934.29
2023-04-12T09:16:49.374Z,934.34
2023-04-12T09:17:49.391Z,934.32
2023-04-12T09:18:49.365Z,934.36
2023-04-12T09:19:49.344Z,934.39
2023-04-12T09:20:49.361Z,934.41
2023-04-12T09:21:49.387Z,934.42
2023-04-12T09:22:49.393Z,934.46
2023-04-12T09:23:49.421Z,934.47
2023-04-12T09:24:49.425Z,934.48
2023-04-12T09:25:49.428Z,934.49
2023-04-12T09:26:49.450Z,934.48
2023-04-12T09:27:49.468Z,934.46
2023-04-12T09:28:49.472Z,934.49
2023-04-12T09:29:49.487Z,934.45
2023-04-12T09:30:49.512Z,934.45
2023-04-12T09:31:49.643Z,934.45
2023-04-12T09:32:49.716Z,934.45
2023-04-12T09:33:49.549Z,934.41
2023-04-12T09:34:49.557Z,934.38
2023-04-12T09:35:49.788Z,934.41
2023-04-12T09:36:49.586Z,934.37
2023-04-12T09:37:49.611Z,934.42
2023-04-12T09:38:49.615Z,934.42
2023-04-12T09:39:49.636Z,934.47
2023-04-12T09:40:49.650Z,934.46
2023-04-12T09:41:49.665Z,934.50
2023-04-12T09:42:49.683Z,934.50
2023-04-12T09:43:49.687Z,934.56
2023-04-12T09:44:49.714Z,934.56
2023-04-12T09:45:49.805Z,934.58
2023-04-12T09:46:49.840Z,934.59
2023-04-12T09:47:49.885Z,934.59
2023-04-12T09:48:49.774Z,934.59
2023-04-12T09:49:49.778Z,934.59
2023-04-12T09:50:49.807Z,934.60
2023-04-12T09:51:49.800Z,934.66
2023-04-12T09:52:49.817Z,934.71
2023-04-12T09:53:49.834Z,934.75
2023-04-12T09:54:49.849Z,934.73
2023-04-12T09:55:49.865Z,934.76
2023-04-12T09:56:49.889Z,934.74
2023-04-12T09:57:49.888Z,934.72
2023-04-12T09:58:49.914Z,934.74
2023-04-12T09:59:49.946Z,934.74
2023-04-12T10:00:49.926Z,934.74
2023-04-12T10:01:49.998Z,934.74
2023-04-12T10:02:51.453Z,934.78
2023-04-12T10:03:50.157Z,934.79
2023-04-12T10:04:50.200Z,934.77
2023-04-12T10:05:50.001Z,934.80
2023-04-12T10:06:50.018Z,934.78
2023-04-12T10:07:50.333Z,934.77
2023-04-12T10:08:50.054Z,934.80
2023-04-12T10:09:50.052Z,934.79
2023-04-12T10:10:50.097Z,934.78
2023-04-12T10:11:50.091Z,934.83
2023-04-12T10:12:50.132Z,934.86
2023-04-12T10:13:50.116Z,934.86
2023-04-12T10:14:50.150Z,934.85
2023-04-12T10:15:50.203Z,934.86
2023-04-12T10:16:50.185Z,934.90
2023-04-12T10:17:50.209Z,934.89
2023-04-12T10:18:50.191Z,934.88
2023-04-12T10:19:50.225Z,934.94
2023-04-12T10:20:50.221Z,934.92
2023-04-12T10:21:50.257Z,934.92
2023-04-12T10:22:50.251Z,934.91
2023-04-12T10:23:50.265Z,934.93
2023-04-12T10:24:50.285Z,934.98
2023-04-12T10:25:50.295Z,934.97
2023-04-12T10:26:50.357Z,935.01
2023-04-12T10:27:50.722Z,935.01
2023-04-12T10:28:50.350Z,935.07
2023-04-12T10:29:50.354Z,935.07
2023-04-12T10:30:50.393Z,935.05
2023-04-12T10:31:50.441Z,935.07
2023-04-12T10:32:50.403Z,935.12
2023-04-12T10:33:50.406Z,935.15
2023-04-12T10:34:50.424Z,935.17
2023-04-12T10:35:50.472Z,935.19
2023-04-12T10:36:50.506Z,935.20
2023-04-12T10:37:50.489Z,935.22
2023-04-12T10:38:50.478Z,935.17
2023-04-12T10:39:50.516Z,935.21
2023-04-12T10:40:50.528Z,935.22
2023-04-12T10:41:50.520Z,935.24
2023-04-12T10:42:50.558Z,935.27
2023-04-12T10:43:50.571Z,935.25
2023-04-12T10:44:50.562Z,935.28
2023-04-12T10:45:50.572Z,935.31
2023-04-12T10:46:50.711Z,935.29
2023-04-12T10:47:50.796Z,935.28
2023-04-12T10:48:50.653Z,935.28
2023-04-12T10:49:50.658Z,935.34
2023-04-12T10:50:50.653Z,935.39
2023-04-12T10:51:50.720Z,935.38
2023-04-12T10:52:50.696Z,935.46
2023-04-12T10:53:50.715Z,935.44
2023-04-12T10:54:50.743Z,935.51
2023-04-12T10:55:50.716Z,935.51
2023-04-12T10:56:50.755Z,935.56
2023-04-12T10:57:50.761Z,935.58
2023-04-12T10:58:50.913Z,935.60
2023-04-12T10:59:50.813Z,935.66
2023-04-12T11:00:50.890Z,935.67
2023-04-12T11:01:50.989Z,935.64
2023-04-12T11:02:51.032Z,935.64
2023-04-12T11:03:51.013Z,935.58
2023-04-12T11:04:50.932Z,935.58
2023-04-12T11:05:50.857Z,935.59
2023-04-12T11:06:52.385Z,935.57
2023-04-12T11:07:50.937Z,935.56
2023-04-12T11:08:50.920Z,935.59
2023-04-12T11:09:50.913Z,935.60
2023-04-12T11:10:50.960Z,935.58
2023-04-12T11:11:50.941Z,935.57
2023-04-12T11:12:50.984Z,935.60
2023-04-12T11:13:50.979Z,935.59
2023-04-12T11:14:51.029Z,935.60
2023-04-12T11:15:51.008Z,935.56
2023-04-12T11:16:51.095Z,935.54
2023-04-12T11:17:51.123Z,935.53
2023-04-12T11:18:51.082Z,935.51
2023-04-12T11:19:51.060Z,935.50
2023-04-12T11:20:51.109Z,935.49
2023-04-12T11:22:51.127Z,935.49
2023-04-12T11:23:51.203Z,935.49
2023-04-12T11:24:51.156Z,935.45
2023-04-12T11:25:51.163Z,935.44
2023-04-12T11:26:51.155Z,935.43
2023-04-12T11:27:51.189Z,935.42
2023-04-12T11:28:51.185Z,935.41
2023-04-12T11:29:51.207Z,935.43
2023-04-12T11:30:51.218Z,935.41
2023-04-12T11:31:51.331Z,935.39
2023-04-12T11:32:51.269Z,935.39
2023-04-12T11:33:51.267Z,935.41
2023-04-12T11:34:51.267Z,935.42
2023-04-12T11:35:51.289Z,935.48
2023-04-12T11:36:51.299Z,935.51
2023-04-12T11:37:51.323Z,935.52
2023-04-12T11:38:51.334Z,935.52
2023-04-12T11:39:51.363Z,935.51
2023-04-12T11:40:51.365Z,935.51
2023-04-12T11:41:51.383Z,935.52
2023-04-12T11:42:51.388Z,935.52
2023-04-12T11:43:51.409Z,935.55
2023-04-12T11:44:58.505Z,935.53
2023-04-12T11:45:51.468Z,935.54
2023-04-12T11:46:51.442Z,935.55
2023-04-12T11:47:51.486Z,935.56
2023-04-12T11:48:51.471Z,935.57
2023-04-12T11:49:51.499Z,935.59
2023-04-12T11:50:59.968Z,935.63
2023-04-12T11:51:51.525Z,935.61
2023-04-12T11:52:51.536Z,935.65
2023-04-12T11:53:51.549Z,935.61
2023-04-12T11:54:51.571Z,935.62
2023-04-12T11:55:51.594Z,935.64
2023-04-12T11:56:51.595Z,935.62
2023-04-12T11:57:51.605Z,935.64
2023-04-12T11:58:51.615Z,935.59
2023-04-12T11:59:51.657Z,935.58
2023-04-12T12:00:51.660Z,935.51
2023-04-12T12:01:51.727Z,935.53
2023-04-12T12:03:06.749Z,935.59
2023-04-12T12:03:51.971Z,935.58
2023-04-12T12:04:52.173Z,935.57
2023-04-12T12:05:52.246Z,935.63
2023-04-12T12:06:52.131Z,935.61
2023-04-12T12:07:51.744Z,935.63
2023-04-12T12:08:51.782Z,935.64
2023-04-12T12:09:51.793Z,935.61
2023-04-12T12:11:04.118Z,935.58
2023-04-12T12:11:51.829Z,935.56
2023-04-12T12:12:51.822Z,935.52
2023-04-12T12:13:51.828Z,935.45
2023-04-12T12:14:51.849Z,935.46
2023-04-12T12:15:51.924Z,935.47
2023-04-12T12:16:51.873Z,935.47
2023-04-12T12:17:51.918Z,935.50
2023-04-12T12:18:52.753Z,935.50
2023-04-12T12:19:51.915Z,935.54
2023-04-12T12:20:51.946Z,935.47
2023-04-12T12:21:51.942Z,935.52
2023-04-12T12:22:51.956Z,935.53
2023-04-12T12:23:51.977Z,935.56
2023-04-12T12:24:51.998Z,935.54
2023-04-12T12:25:57.773Z,935.59
2023-04-12T12:26:52.024Z,935.57
2023-04-12T12:27:52.139Z,935.54
2023-04-12T12:28:52.046Z,935.51
2023-04-12T12:29:52.073Z,935.47